createdAt,value
2019-03-21T00:00:58.920Z,3.65
2019-03-21T00:03:29.105Z,3.30
2019-03-21T00:05:59.399Z,3.27
2019-03-21T00:08:29.592Z,3.22
2019-03-21T00:11:56.916Z,3.30
2019-03-21T00:15:01.896Z,3.10
2019-03-21T00:17:35.320Z,3.00
2019-03-21T00:20:08.640Z,3.47
2019-03-21T00:22:38.920Z,3.10
2019-03-21T00:25:10.561Z,3.30
2019-03-21T00:27:40.834Z,3.37
2019-03-21T00:30:15.052Z,2.83
2019-03-21T00:32:45.408Z,3.13
2019-03-21T00:35:16.712Z,2.83
2019-03-21T00:37:47.254Z,3.07
2019-03-21T00:40:20.553Z,3.20
2019-03-21T00:42:51.098Z,3.00
2019-03-21T00:45:21.305Z,2.83
2019-03-21T00:47:51.654Z,3.40
2019-03-21T00:50:23.479Z,3.20
2019-03-21T00:52:54.961Z,3.17
2019-03-21T00:55:25.382Z,3.73
2019-03-21T00:57:55.576Z,3.07
2019-03-21T01:00:28.227Z,3.70
2019-03-21T01:02:58.530Z,3.43
2019-03-21T01:05:29.393Z,3.25
2019-03-21T01:07:59.592Z,2.90
2019-03-21T01:10:29.865Z,3.07
2019-03-21T01:13:00.143Z,3.55
2019-03-21T01:15:30.326Z,4.07
2019-03-21T01:18:00.518Z,3.83
2019-03-21T01:20:30.704Z,3.67
2019-03-21T01:23:00.906Z,3.80
2019-03-21T01:25:37.333Z,4.10
2019-03-21T01:28:07.775Z,4.20
2019-03-21T01:30:37.951Z,3.90
2019-03-21T01:33:09.444Z,4.13
2019-03-21T01:35:40.466Z,4.37
2019-03-21T01:38:10.673Z,4.47
2019-03-21T01:40:42.213Z,4.50
2019-03-21T01:43:12.741Z,4.08
2019-03-21T01:45:42.928Z,4.43
2019-03-21T01:48:13.269Z,4.22
2019-03-21T01:50:43.736Z,4.47
2019-03-21T01:53:14.011Z,4.47
2019-03-21T01:55:44.274Z,4.67
2019-03-21T01:58:14.795Z,4.12
2019-03-21T02:00:45.052Z,4.43
2019-03-21T02:03:15.370Z,4.17
2019-03-21T02:05:45.631Z,4.60
2019-03-21T02:08:16.137Z,3.87
2019-03-21T02:10:46.333Z,4.03
2019-03-21T02:13:17.116Z,4.40
2019-03-21T02:15:47.307Z,4.37
2019-03-21T02:18:17.517Z,4.30
2019-03-21T02:20:47.702Z,4.40
2019-03-21T02:23:18.157Z,3.67
2019-03-21T02:25:48.448Z,4.07
2019-03-21T02:28:18.908Z,4.17
2019-03-21T02:30:49.149Z,4.23
2019-03-21T02:33:22.604Z,3.73
2019-03-21T02:35:52.761Z,4.30
2019-03-21T02:38:23.029Z,3.73
2019-03-21T02:40:53.546Z,4.67
2019-03-21T02:43:23.715Z,4.65
2019-03-21T02:45:54.097Z,4.50
2019-03-21T02:48:24.348Z,3.75
2019-03-21T02:50:55.586Z,3.93
2019-03-21T02:53:26.005Z,4.00
2019-03-21T02:55:56.176Z,3.58
2019-03-21T02:58:26.369Z,3.57
2019-03-21T03:00:56.544Z,3.67
2019-03-21T03:03:26.738Z,3.80
2019-03-21T03:05:57.210Z,3.70
2019-03-21T03:08:27.405Z,4.40
2019-03-21T03:10:57.669Z,3.85
2019-03-21T03:13:27.860Z,4.00
2019-03-21T03:15:58.458Z,3.60
2019-03-21T03:18:29.110Z,3.17
2019-03-21T03:20:59.289Z,3.10
2019-03-21T03:23:29.730Z,3.37
2019-03-21T03:25:59.908Z,3.10
2019-03-21T03:28:31.098Z,3.47
2019-03-21T03:31:01.763Z,3.63
2019-03-21T03:33:31.894Z,4.23
2019-03-21T03:36:02.082Z,4.53
2019-03-21T03:38:32.281Z,4.60
2019-03-21T03:41:04.577Z,4.70
2019-03-21T03:43:34.839Z,4.73
2019-03-21T03:46:05.178Z,4.70
2019-03-21T03:48:35.371Z,3.97
2019-03-21T03:51:06.245Z,3.67
2019-03-21T03:53:36.730Z,3.77
2019-03-21T03:56:06.994Z,3.40
2019-03-21T03:58:38.144Z,3.83
2019-03-21T04:01:08.468Z,4.13
2019-03-21T04:03:38.673Z,4.30
2019-03-21T04:06:09.936Z,4.53
2019-03-21T04:08:40.462Z,5.25
2019-03-21T04:11:10.888Z,5.50
2019-03-21T04:13:41.251Z,5.43
2019-03-21T04:16:11.497Z,5.27
2019-03-21T04:18:42.062Z,5.20
2019-03-21T04:21:12.957Z,5.53
2019-03-21T04:23:43.241Z,5.03
2019-03-21T04:26:20.863Z,5.87
2019-03-21T04:28:51.169Z,5.10
2019-03-21T04:31:21.350Z,5.70
2019-03-21T04:33:53.406Z,6.27
2019-03-21T04:36:23.895Z,6.23
2019-03-21T04:38:54.229Z,5.43
2019-03-21T04:41:24.474Z,5.75
2019-03-21T04:43:55.147Z,6.37
2019-03-21T04:46:25.351Z,5.95
2019-03-21T04:48:56.113Z,6.00
2019-03-21T04:51:27.265Z,6.42
2019-03-21T04:53:58.986Z,7.12
2019-03-21T04:56:29.588Z,6.75
2019-03-21T04:58:59.839Z,6.37
2019-03-21T05:01:30.487Z,6.58
2019-03-21T05:04:00.681Z,7.40
2019-03-21T05:06:32.882Z,6.40
2019-03-21T05:09:05.982Z,6.10
2019-03-21T05:11:36.284Z,6.00
2019-03-21T05:14:06.543Z,6.60
2019-03-21T05:16:36.731Z,6.50
2019-03-21T05:19:07.285Z,6.60
2019-03-21T05:21:37.603Z,6.27
2019-03-21T05:24:08.077Z,5.55
2019-03-21T05:26:38.274Z,4.83
2019-03-21T05:29:08.570Z,4.80
2019-03-21T05:31:39.001Z,5.55
2019-03-21T05:34:09.588Z,5.17
2019-03-21T05:36:40.139Z,6.20
2019-03-21T05:39:11.130Z,6.00
2019-03-21T05:41:41.874Z,5.70
2019-03-21T05:44:20.737Z,6.53
2019-03-21T05:46:51.325Z,6.80
2019-03-21T05:49:21.516Z,6.53
2019-03-21T05:51:51.705Z,7.30
2019-03-21T05:54:22.447Z,6.55
2019-03-21T05:56:52.622Z,6.70
2019-03-21T05:59:23.661Z,6.93
2019-03-21T06:01:53.939Z,7.13
2019-03-21T06:04:24.238Z,7.20
2019-03-21T06:07:07.961Z,8.20
2019-03-21T06:09:38.231Z,7.37
2019-03-21T06:12:08.677Z,7.30
2019-03-21T06:14:41.981Z,7.53
2019-03-21T06:17:12.236Z,6.67
2019-03-21T06:20:06.422Z,6.10
2019-03-21T06:23:01.716Z,5.80
2019-03-21T06:26:15.695Z,5.92
2019-03-21T06:28:45.871Z,5.97
2019-03-21T06:31:16.065Z,6.00
2019-03-21T06:33:46.541Z,6.08
2019-03-21T06:36:18.213Z,6.90
2019-03-21T06:38:48.402Z,5.53
2019-03-21T06:41:19.569Z,6.57
2019-03-21T06:43:50.050Z,6.30
2019-03-21T06:46:20.250Z,6.03
2019-03-21T06:48:50.528Z,6.30
2019-03-21T06:51:20.735Z,6.53
2019-03-21T06:53:50.919Z,9.53
2019-03-21T06:56:21.397Z,9.03
2019-03-21T06:58:52.743Z,10.27
2019-03-21T07:01:23.014Z,7.95
2019-03-21T07:03:53.273Z,7.40
2019-03-21T07:06:24.285Z,7.93
2019-03-21T07:08:54.597Z,8.08
2019-03-21T07:11:24.797Z,9.47
2019-03-21T07:13:55.080Z,8.40
2019-03-21T07:16:25.414Z,7.50
2019-03-21T07:18:55.655Z,8.58
2019-03-21T07:21:25.897Z,8.20
2019-03-21T07:23:56.214Z,6.87
2019-03-21T07:26:26.489Z,7.13
2019-03-21T07:28:56.754Z,7.47
2019-03-21T07:31:26.943Z,8.33
2019-03-21T07:33:57.377Z,7.22
2019-03-21T07:36:27.647Z,7.60
2019-03-21T07:38:57.912Z,7.63
2019-03-21T07:41:28.097Z,7.40
2019-03-21T07:43:58.320Z,6.97
2019-03-21T07:46:28.519Z,7.27
2019-03-21T07:48:58.843Z,6.70
2019-03-21T07:51:29.391Z,7.33
2019-03-21T07:53:59.573Z,7.83
2019-03-21T07:56:29.768Z,8.00
2019-03-21T07:58:59.962Z,7.03
2019-03-21T08:01:30.581Z,7.10
2019-03-21T08:04:02.862Z,7.47
2019-03-21T08:06:33.061Z,7.83
2019-03-21T08:09:04.168Z,7.40
2019-03-21T08:11:34.373Z,7.37
2019-03-21T08:14:04.634Z,7.35
2019-03-21T08:16:34.829Z,7.50
2019-03-21T08:19:05.010Z,7.47
2019-03-21T08:21:35.285Z,7.05
2019-03-21T08:24:05.578Z,7.65
2019-03-21T08:26:35.783Z,6.42
2019-03-21T08:29:06.991Z,6.60
2019-03-21T08:31:38.156Z,6.77
2019-03-21T08:34:09.317Z,6.90
2019-03-21T08:36:39.608Z,7.33
2019-03-21T08:39:10.147Z,6.58
2019-03-21T08:41:40.348Z,10.30
2019-03-21T08:44:10.544Z,7.40
2019-03-21T08:46:40.737Z,8.00
2019-03-21T08:49:10.919Z,7.20
2019-03-21T08:51:41.141Z,7.05
2019-03-21T08:54:11.317Z,6.27
2019-03-21T08:56:41.507Z,6.30
2019-03-21T08:59:12.663Z,6.33
2019-03-21T09:01:42.861Z,6.47
2019-03-21T09:04:13.307Z,7.27
2019-03-21T09:06:43.498Z,7.37
2019-03-21T09:09:14.233Z,6.17
2019-03-21T09:11:44.487Z,6.53
2019-03-21T09:14:14.660Z,7.10
2019-03-21T09:16:44.854Z,7.03
2019-03-21T09:19:15.038Z,6.80
2019-03-21T09:21:45.237Z,7.30
2019-03-21T09:24:15.414Z,7.70
2019-03-21T09:26:45.601Z,6.77
2019-03-21T09:29:16.033Z,6.30
2019-03-21T09:31:47.441Z,6.70
2019-03-21T09:34:17.616Z,6.07
2019-03-21T09:36:47.820Z,6.58
2019-03-21T09:39:17.991Z,6.60
2019-03-21T09:41:48.203Z,6.00
2019-03-21T09:44:28.262Z,6.97
2019-03-21T09:46:58.545Z,6.00
2019-03-21T09:49:28.725Z,5.47
2019-03-21T09:51:58.933Z,5.35
2019-03-21T09:54:29.377Z,5.17
2019-03-21T09:56:59.823Z,4.97
2019-03-21T09:59:30.004Z,5.67
2019-03-21T10:02:00.199Z,6.25
2019-03-21T10:04:30.391Z,6.72
2019-03-21T10:07:00.652Z,4.77
2019-03-21T10:09:31.170Z,4.60
2019-03-21T10:12:01.377Z,4.35
2019-03-21T10:14:31.548Z,5.37
2019-03-21T10:17:01.751Z,4.70
2019-03-21T10:19:32.200Z,4.40
2019-03-21T10:22:02.463Z,5.40
2019-03-21T10:24:32.901Z,3.60
2019-03-21T10:27:03.104Z,3.90
2019-03-21T10:29:33.355Z,3.60
2019-03-21T10:32:13.958Z,4.55
2019-03-21T10:34:35.772Z,3.93
2019-03-21T10:37:05.989Z,3.93
2019-03-21T10:39:36.165Z,3.73
2019-03-21T10:42:06.378Z,5.13
2019-03-21T10:44:37.546Z,5.33
2019-03-21T10:47:07.770Z,3.70
2019-03-21T10:49:38.207Z,3.93
2019-03-21T10:52:08.409Z,4.10
2019-03-21T10:54:38.598Z,3.87
2019-03-21T10:57:08.800Z,4.33
2019-03-21T10:59:39.003Z,4.10
2019-03-21T11:02:10.971Z,4.53
2019-03-21T11:04:41.173Z,3.93
2019-03-21T11:07:09.478Z,3.90
2019-03-21T11:09:39.674Z,4.43
2019-03-21T11:12:09.862Z,3.83
2019-03-21T11:14:40.387Z,4.72
2019-03-21T11:17:10.563Z,4.90
2019-03-21T11:19:41.445Z,3.90
2019-03-21T11:22:11.624Z,3.83
2019-03-21T11:24:41.816Z,5.37
2019-03-21T11:27:12.322Z,4.37
2019-03-21T11:29:42.519Z,4.58
2019-03-21T11:32:15.227Z,3.80
2019-03-21T11:34:45.414Z,4.90
2019-03-21T11:37:16.508Z,5.13
2019-03-21T11:39:46.711Z,4.70
2019-03-21T11:42:17.183Z,4.47
2019-03-21T11:44:47.629Z,4.20
2019-03-21T11:47:17.807Z,4.40
2019-03-21T11:49:48.024Z,4.25
2019-03-21T11:52:18.769Z,4.03
2019-03-21T11:54:49.017Z,4.07
2019-03-21T11:57:19.219Z,4.17
2019-03-21T11:59:51.928Z,4.50
2019-03-21T12:02:27.325Z,4.20
2019-03-21T12:04:54.750Z,4.35
2019-03-21T12:07:24.949Z,4.15
2019-03-21T12:09:55.146Z,3.72
2019-03-21T12:12:25.573Z,3.90
2019-03-21T12:14:56.798Z,4.07
2019-03-21T12:17:27.225Z,4.07
2019-03-21T12:19:58.630Z,3.80
2019-03-21T12:22:30.278Z,4.30
2019-03-21T12:25:00.694Z,4.27
2019-03-21T12:27:30.875Z,4.90
2019-03-21T12:30:01.122Z,10.63
2019-03-21T12:32:32.956Z,4.60
2019-03-21T12:35:03.233Z,4.67
2019-03-21T12:37:34.249Z,4.40
2019-03-21T12:40:05.520Z,4.07
2019-03-21T12:42:36.734Z,4.40
2019-03-21T12:45:09.473Z,3.77
2019-03-21T12:47:39.650Z,4.35
2019-03-21T12:50:10.668Z,4.53
2019-03-21T12:55:12.826Z,5.10
2019-03-21T12:57:43.032Z,6.20
2019-03-21T13:00:13.543Z,3.92
2019-03-21T13:02:43.810Z,4.07
2019-03-21T13:05:18.367Z,5.57
2019-03-21T13:07:13.145Z,4.33
2019-03-21T13:07:48.567Z,4.23
2019-03-21T13:10:18.819Z,3.90
2019-03-21T13:12:49.018Z,4.07
2019-03-21T13:15:29.510Z,4.40
2019-03-21T13:17:51.163Z,4.47
2019-03-21T13:20:21.334Z,4.30
2019-03-21T13:22:53.148Z,4.67
2019-03-21T13:25:23.696Z,4.53
2019-03-21T13:27:53.976Z,4.30
2019-03-21T13:30:24.172Z,4.37
2019-03-21T13:32:54.390Z,4.22
2019-03-21T13:35:32.653Z,4.27
2019-03-21T13:37:56.482Z,4.10
2019-03-21T13:40:27.641Z,4.90
2019-03-21T13:42:57.833Z,4.33
2019-03-21T13:45:28.262Z,4.40
2019-03-21T13:47:59.236Z,4.35
2019-03-21T13:50:30.648Z,4.13
2019-03-21T13:53:05.225Z,4.77
2019-03-21T13:55:32.838Z,4.20
2019-03-21T13:58:03.039Z,4.83
2019-03-21T14:00:33.205Z,5.23
2019-03-21T14:03:03.399Z,4.97
2019-03-21T14:05:33.594Z,4.58
2019-03-21T14:08:03.785Z,4.37
2019-03-21T14:10:33.970Z,4.40
2019-03-21T14:13:04.228Z,5.30
2019-03-21T14:15:34.406Z,4.78
2019-03-21T14:18:04.683Z,5.23
2019-03-21T14:20:34.861Z,4.63
2019-03-21T14:23:16.426Z,4.43
2019-03-21T14:25:37.453Z,4.03
2019-03-21T14:28:07.797Z,4.77
2019-03-21T14:30:37.991Z,4.80
2019-03-21T14:33:08.605Z,4.87
2019-03-21T14:35:38.823Z,5.20
2019-03-21T14:38:25.387Z,5.12
2019-03-21T14:40:46.192Z,5.40
2019-03-21T14:43:16.758Z,5.15
2019-03-21T14:45:47.452Z,4.97
2019-03-21T14:48:18.613Z,5.00
2019-03-21T14:50:49.058Z,5.03
2019-03-21T14:53:28.404Z,4.77
2019-03-21T14:55:51.821Z,4.67
2019-03-21T14:58:22.022Z,4.80
2019-03-21T15:00:52.209Z,4.40
2019-03-21T15:03:22.411Z,5.37
2019-03-21T15:05:53.029Z,4.53
2019-03-21T15:08:23.213Z,5.20
2019-03-21T15:10:53.429Z,5.30
2019-03-21T15:13:24.914Z,4.67
2019-03-21T15:15:55.409Z,5.00
2019-03-21T15:18:25.605Z,4.65
2019-03-21T15:20:55.790Z,4.43
2019-03-21T15:23:26.154Z,4.63
2019-03-21T15:25:56.533Z,4.90
2019-03-21T15:28:27.741Z,4.43
2019-03-21T15:30:57.885Z,5.30
2019-03-21T15:33:28.259Z,7.40
2019-03-21T15:35:58.503Z,5.80
2019-03-21T15:38:28.803Z,5.10
2019-03-21T15:40:58.998Z,4.73
2019-03-21T15:43:29.193Z,5.40
2019-03-21T15:45:59.453Z,5.23
2019-03-21T15:48:29.869Z,5.53
2019-03-21T15:51:04.756Z,5.78
2019-03-21T15:53:32.910Z,5.50
2019-03-21T15:56:03.087Z,7.20
2019-03-21T15:58:33.310Z,6.57
2019-03-21T16:01:03.565Z,6.27
2019-03-21T16:03:34.033Z,5.75
2019-03-21T16:06:04.710Z,5.95
2019-03-21T16:08:35.117Z,6.60
2019-03-21T16:11:05.447Z,8.70
2019-03-21T16:13:35.680Z,9.25
2019-03-21T16:16:06.123Z,6.20
2019-03-21T16:18:36.558Z,6.20
2019-03-21T16:21:06.822Z,5.57
2019-03-21T16:23:37.263Z,6.60
2019-03-21T16:26:07.754Z,5.87
2019-03-21T16:28:38.220Z,6.63
2019-03-21T16:31:08.910Z,5.77
2019-03-21T16:33:39.373Z,6.28
2019-03-21T16:36:09.563Z,6.30
2019-03-21T16:38:39.766Z,5.77
2019-03-21T16:41:10.344Z,5.80
2019-03-21T16:43:40.777Z,6.00
2019-03-21T16:46:10.971Z,5.83
2019-03-21T16:48:41.172Z,5.53
2019-03-21T16:51:11.643Z,5.93
2019-03-21T16:53:43.839Z,6.70
2019-03-21T16:56:15.185Z,5.40
2019-03-21T16:58:45.374Z,5.70
2019-03-21T17:01:15.595Z,6.13
2019-03-21T17:03:45.801Z,5.67
2019-03-21T17:06:16.012Z,6.20
2019-03-21T17:08:46.193Z,6.90
2019-03-21T17:11:16.451Z,6.67
2019-03-21T17:13:46.895Z,6.85
2019-03-21T17:16:17.097Z,7.40
2019-03-21T17:18:47.828Z,6.83
2019-03-21T17:21:18.826Z,7.90
2019-03-21T17:23:49.600Z,7.55
2019-03-21T17:26:20.026Z,6.80
2019-03-21T17:28:51.442Z,6.70
2019-03-21T17:31:21.819Z,6.80
2019-03-21T17:33:52.002Z,7.15
2019-03-21T17:36:22.603Z,7.40
2019-03-21T17:38:52.786Z,7.23
2019-03-21T17:41:22.989Z,7.27
2019-03-21T17:43:53.242Z,6.97
2019-03-21T17:46:23.450Z,7.90
2019-03-21T17:48:54.040Z,7.17
2019-03-21T17:51:24.245Z,7.17
2019-03-21T17:53:54.429Z,7.20
2019-03-21T17:56:24.889Z,7.67
2019-03-21T17:58:57.677Z,7.40
2019-03-21T18:01:27.946Z,8.40
2019-03-21T18:03:58.481Z,8.70
2019-03-21T18:06:28.737Z,8.43
2019-03-21T18:08:59.879Z,8.43
2019-03-21T18:11:30.074Z,9.15
2019-03-21T18:14:00.745Z,9.13
2019-03-21T18:16:30.951Z,10.10
2019-03-21T18:19:01.395Z,9.85
2019-03-21T18:21:32.797Z,10.25
2019-03-21T18:24:02.997Z,9.70
2019-03-21T18:26:33.438Z,10.03
2019-03-21T18:29:04.692Z,10.77
2019-03-21T18:31:35.654Z,9.93
2019-03-21T18:34:06.110Z,9.35
2019-03-21T18:36:36.489Z,9.73
2019-03-21T18:39:08.978Z,10.33
2019-03-21T18:41:39.333Z,9.18
2019-03-21T18:44:10.074Z,9.30
2019-03-21T18:46:40.547Z,9.13
2019-03-21T18:49:10.758Z,9.10
2019-03-21T18:51:41.420Z,10.00
2019-03-21T18:54:11.682Z,9.73
2019-03-21T18:56:41.956Z,10.00
2019-03-21T18:59:12.149Z,10.06
2019-03-21T19:01:42.652Z,10.73
2019-03-21T19:04:12.837Z,10.67
2019-03-21T19:06:43.068Z,10.93
2019-03-21T19:09:13.421Z,10.57
2019-03-21T19:11:44.595Z,10.17
2019-03-21T19:14:14.918Z,10.48
2019-03-21T19:16:45.207Z,11.03
2019-03-21T19:19:15.582Z,12.07
2019-03-21T19:21:46.095Z,13.27
2019-03-21T19:24:18.027Z,13.93
2019-03-21T19:26:48.807Z,11.77
2019-03-21T19:29:18.991Z,9.13
2019-03-21T19:31:49.201Z,8.70
2019-03-21T19:34:19.441Z,7.97
2019-03-21T19:36:49.654Z,8.17
2019-03-21T19:39:19.860Z,10.80
2019-03-21T19:41:50.098Z,10.40
2019-03-21T19:44:20.753Z,11.43
2019-03-21T19:46:50.971Z,13.20
2019-03-21T19:49:21.204Z,18.87
2019-03-21T19:51:51.399Z,19.83
2019-03-21T19:54:21.604Z,19.13
2019-03-21T19:56:52.106Z,19.77
2019-03-21T19:59:22.301Z,16.53
2019-03-21T20:01:52.624Z,8.18
2019-03-21T20:04:23.230Z,6.70
2019-03-21T20:06:53.477Z,7.10
2019-03-21T20:09:23.748Z,9.03
2019-03-21T20:11:54.029Z,8.60
2019-03-21T20:14:24.320Z,9.13
2019-03-21T20:16:54.620Z,8.97
2019-03-21T20:19:25.281Z,10.15
2019-03-21T20:21:55.748Z,10.50
2019-03-21T20:24:26.041Z,11.47
2019-03-21T20:26:56.470Z,10.43
2019-03-21T20:29:27.645Z,10.50
2019-03-21T20:31:57.915Z,13.20
2019-03-21T20:34:28.136Z,14.85
2019-03-21T20:36:58.318Z,15.87
2019-03-21T20:39:28.608Z,16.95
2019-03-21T20:41:58.873Z,14.80
2019-03-21T20:44:29.085Z,13.03
2019-03-21T20:46:59.318Z,12.63
2019-03-21T20:49:29.514Z,12.83
2019-03-21T20:52:00.083Z,11.97
2019-03-21T20:54:30.714Z,11.70
2019-03-21T20:57:00.912Z,10.77
2019-03-21T20:59:31.139Z,11.35
2019-03-21T21:02:02.922Z,11.20
2019-03-21T21:04:33.464Z,11.37
2019-03-21T21:07:05.046Z,11.37
2019-03-21T21:09:35.442Z,12.33
2019-03-21T21:12:05.704Z,11.85
2019-03-21T21:14:36.234Z,11.30
2019-03-21T21:17:06.508Z,10.33
2019-03-21T21:19:36.817Z,10.83
2019-03-21T21:22:07.258Z,10.65
2019-03-21T21:24:38.431Z,10.23
2019-03-21T21:27:09.635Z,9.40
2019-03-21T21:29:42.895Z,9.98
2019-03-21T21:32:12.209Z,9.53
2019-03-21T21:34:42.474Z,8.68
2019-03-21T21:37:13.099Z,8.53
2019-03-21T21:39:43.408Z,8.07
2019-03-21T21:42:13.589Z,9.00
2019-03-21T21:44:43.947Z,9.87
2019-03-21T21:47:14.172Z,9.73
2019-03-21T21:49:46.294Z,9.47
2019-03-21T21:52:17.093Z,9.83
2019-03-21T21:54:49.234Z,9.37
2019-03-21T21:57:19.205Z,9.53
2019-03-21T21:59:49.434Z,10.48
2019-03-21T22:02:19.750Z,8.75
2019-03-21T22:04:49.961Z,8.60
2019-03-21T22:07:20.394Z,9.00
2019-03-21T22:09:50.590Z,8.87
2019-03-21T22:12:20.968Z,8.83
2019-03-21T22:14:51.421Z,8.60
2019-03-21T22:17:21.612Z,9.10
2019-03-21T22:19:51.795Z,8.70
2019-03-21T22:22:22.479Z,9.27
2019-03-21T22:24:52.747Z,10.87
2019-03-21T22:27:23.215Z,11.50
2019-03-21T22:29:54.020Z,11.45
2019-03-21T22:32:24.227Z,11.22
2019-03-21T22:34:55.623Z,15.30
2019-03-21T22:37:25.831Z,34.60
2019-03-21T22:39:56.069Z,23.27
2019-03-21T22:42:26.342Z,18.05
2019-03-21T22:44:56.653Z,16.07
2019-03-21T22:47:27.143Z,13.90
2019-03-21T22:49:57.331Z,11.03
2019-03-21T22:52:27.621Z,12.50
2019-03-21T22:54:57.809Z,12.80
2019-03-21T22:57:28.029Z,12.97
2019-03-21T22:59:58.216Z,12.57
2019-03-21T23:02:28.502Z,12.07
2019-03-21T23:04:58.685Z,11.50
2019-03-21T23:07:28.933Z,12.27
2019-03-21T23:09:59.126Z,11.73
2019-03-21T23:12:29.583Z,12.70
2019-03-21T23:15:00.026Z,12.37
2019-03-21T23:17:30.318Z,12.17
2019-03-21T23:20:00.774Z,11.30
2019-03-21T23:22:30.976Z,12.18
2019-03-21T23:25:01.172Z,11.97
2019-03-21T23:27:31.622Z,12.50
2019-03-21T23:30:02.057Z,11.80
2019-03-21T23:32:32.317Z,11.75
2019-03-21T23:35:02.586Z,12.27
2019-03-21T23:37:32.787Z,11.47
2019-03-21T23:40:03.310Z,12.30
2019-03-21T23:42:34.086Z,11.17
2019-03-21T23:45:04.996Z,11.05
2019-03-21T23:47:35.710Z,11.20
2019-03-21T23:50:07.040Z,11.47
2019-03-21T23:52:37.508Z,10.97
2019-03-21T23:55:08.221Z,11.00
2019-03-21T23:57:38.486Z,10.63
